sensor_id;sensor_type;location;lat;lon;timestamp;pressure;altitude;pressure_sealevel;temperature;humidity
26915;BME280;14480;52.608;13.416;2022-11-15T07:55:31;141081.50;;;-11.94;100.00
26915;BME280;14480;52.608;13.416;2022-11-15T08:00:56;141145.50;;;-11.67;100.00
26915;BME280;14480;52.608;13.416;2022-11-15T08:06:19;141226.78;;;-11.34;100.00
26915;BME280;14480;52.608;13.416;2022-11-15T08:11:43;141278.47;;;-11.12;100.00
26915;BME280;14480;52.608;13.416;2022-11-15T08:17:14;141278.47;;;-11.12;100.00
26915;BME280;14480;52.608;13.416;2022-11-15T08:22:39;140788.75;;;-13.15;100.00
26915;BME280;14480;52.608;13.416;2022-11-15T08:28:05;141308.03;;;-11.00;100.00
26915;BME280;14480;52.608;13.416;2022-11-15T08:33:28;141465.78;;;-10.35;100.00
26915;BME280;14480;52.608;13.416;2022-11-15T08:38:51;141426.34;;;-10.51;100.00
26915;BME280;14480;52.608;13.416;2022-11-15T08:44:15;141540.94;;;-10.04;100.00
26915;BME280;14480;52.608;13.416;2022-11-15T08:49:38;141587.78;;;-9.85;100.00
26915;BME280;14480;52.608;13.416;2022-11-15T08:55:00;141656.88;;;-9.56;100.00
26915;BME280;14480;52.608;13.416;2022-11-15T09:00:24;141717.31;;;-9.31;100.00
26915;BME280;14480;52.608;13.416;2022-11-15T09:05:46;141738.31;;;-9.23;100.00
26915;BME280;14480;52.608;13.416;2022-11-15T09:11:11;141786.41;;;-9.03;100.00
26915;BME280;14480;52.608;13.416;2022-11-15T09:16:37;141843.22;;;-8.79;100.00
26915;BME280;14480;52.608;13.416;2022-11-15T09:22:00;141954.25;;;-8.34;100.00
26915;BME280;14480;52.608;13.416;2022-11-15T09:27:23;141839.47;;;-8.81;100.00
26915;BME280;14480;52.608;13.416;2022-11-15T09:32:51;142061.75;;;-7.89;100.00
26915;BME280;14480;52.608;13.416;2022-11-15T09:38:14;142102.53;;;-7.73;100.00
26915;BME280;14480;52.608;13.416;2022-11-15T09:43:40;142155.69;;;-7.51;100.00
26915;BME280;14480;52.608;13.416;2022-11-15T09:49:12;142163.09;;;-7.48;100.00
26915;BME280;14480;52.608;13.416;2022-11-15T09:54:46;142213.78;;;-7.27;100.00
26915;BME280;14480;52.608;13.416;2022-11-15T10:00:07;142193.97;;;-7.35;100.00
26915;BME280;14480;52.608;13.416;2022-11-15T10:05:37;142278.06;;;-7.00;100.00
26915;BME280;14480;52.608;13.416;2022-11-15T10:10:43;142337.41;;;-6.76;100.00
26915;BME280;14480;52.608;13.416;2022-11-15T10:15:53;142328.75;;;-6.80;100.00
26915;BME280;14480;52.608;13.416;2022-11-15T10:21:17;142388.13;;;-6.55;100.00
26915;BME280;14480;52.608;13.416;2022-11-15T10:26:23;142456.16;;;-6.27;100.00
26915;BME280;14480;52.608;13.416;2022-11-15T10:31:28;142435.16;;;-6.36;100.00
26915;BME280;14480;52.608;13.416;2022-11-15T10:36:34;142497.00;;;-6.10;100.00
26915;BME280;14480;52.608;13.416;2022-11-15T10:41:42;142425.22;;;-6.40;100.00
26915;BME280;14480;52.608;13.416;2022-11-15T10:46:48;142508.13;;;-6.06;100.00
26915;BME280;14480;52.608;13.416;2022-11-15T10:51:56;142503.19;;;-6.08;100.00
26915;BME280;14480;52.608;13.416;2022-11-15T10:57:15;142577.44;;;-5.77;100.00
26915;BME280;14480;52.608;13.416;2022-11-15T11:02:32;142621.97;;;-5.59;100.00
26915;BME280;14480;52.608;13.416;2022-11-15T11:07:38;142639.31;;;-5.52;100.00
26915;BME280;14480;52.608;13.416;2022-11-15T11:12:43;142683.88;;;-5.34;100.00
26915;BME280;14480;52.608;13.416;2022-11-15T11:17:57;142723.53;;;-5.17;100.00
26915;BME280;14480;52.608;13.416;2022-11-15T11:23:33;142666.56;;;-5.41;100.00
26915;BME280;14480;52.608;13.416;2022-11-15T11:28:47;142744.59;;;-5.09;100.00
26915;BME280;14480;52.608;13.416;2022-11-15T11:34:01;142765.63;;;-5.00;100.00
26915;BME280;14480;52.608;13.416;2022-11-15T11:39:24;142676.44;;;-5.37;100.00
26915;BME280;14480;52.608;13.416;2022-11-15T11:44:40;142799.06;;;-4.86;100.00
26915;BME280;14480;52.608;13.416;2022-11-15T11:49:51;142805.28;;;-4.84;100.00
26915;BME280;14480;52.608;13.416;2022-11-15T11:55:02;142839.97;;;-4.70;100.00
26915;BME280;14480;52.608;13.416;2022-11-15T12:00:18;142867.22;;;-4.58;100.00
26915;BME280;14480;52.608;13.416;2022-11-15T12:05:33;142804.06;;;-4.84;100.00
26915;BME280;14480;52.608;13.416;2022-11-15T12:10:45;142868.47;;;-4.58;100.00
26915;BME280;14480;52.608;13.416;2022-11-15T12:15:56;142786.69;;;-4.91;100.00
26915;BME280;14480;52.608;13.416;2022-11-15T12:21:06;142900.69;;;-4.45;100.00
26915;BME280;14480;52.608;13.416;2022-11-15T12:26:16;142864.75;;;-4.59;100.00
26915;BME280;14480;52.608;13.416;2022-11-15T12:31:26;142918.06;;;-4.37;100.00
26915;BME280;14480;52.608;13.416;2022-11-15T12:36:40;142914.34;;;-4.39;100.00
26915;BME280;14480;52.608;13.416;2022-11-15T12:47:26;142872.19;;;-4.56;100.00
26915;BME280;14480;52.608;13.416;2022-11-15T12:52:31;142925.47;;;-4.34;100.00
26915;BME280;14480;52.608;13.416;2022-11-15T12:57:38;142940.31;;;-4.28;100.00
26915;BME280;14480;52.608;13.416;2022-11-15T13:02:44;142901.91;;;-4.44;100.00
26915;BME280;14480;52.608;13.416;2022-11-15T13:07:57;142839.97;;;-4.70;100.00
26915;BME280;14480;52.608;13.416;2022-11-15T13:13:08;142929.19;;;-4.33;100.00
26915;BME280;14480;52.608;13.416;2022-11-15T13:18:32;142906.88;;;-4.42;100.00
26915;BME280;14480;52.608;13.416;2022-11-15T13:23:37;142936.63;;;-4.30;100.00
26915;BME280;14480;52.608;13.416;2022-11-15T13:28:47;142555.13;;;-5.87;100.00
26915;BME280;14480;52.608;13.416;2022-11-15T13:33:57;142801.56;;;-4.85;100.00
26915;BME280;14480;52.608;13.416;2022-11-15T13:39:06;142888.31;;;-4.50;100.00
26915;BME280;14480;52.608;13.416;2022-11-15T13:44:22;142821.38;;;-4.77;100.00
26915;BME280;14480;52.608;13.416;2022-11-15T13:49:30;142584.84;;;-5.74;100.00
26915;BME280;14480;52.608;13.416;2022-11-15T13:54:36;142827.56;;;-4.75;100.00
26915;BME280;14480;52.608;13.416;2022-11-15T13:59:49;142656.63;;;-5.45;100.00
26915;BME280;14480;52.608;13.416;2022-11-15T14:04:57;142756.97;;;-5.04;100.00
26915;BME280;14480;52.608;13.416;2022-11-15T14:10:17;142724.75;;;-5.17;100.00
26915;BME280;14480;52.608;13.416;2022-11-15T14:15:29;142713.59;;;-5.21;100.00
26915;BME280;14480;52.608;13.416;2022-11-15T14:20:34;142688.84;;;-5.32;100.00
26915;BME280;14480;52.608;13.416;2022-11-15T14:25:39;142625.66;;;-5.58;100.00
26915;BME280;14480;52.608;13.416;2022-11-15T14:30:45;142591.03;;;-5.72;100.00
26915;BME280;14480;52.608;13.416;2022-11-15T14:35:52;142547.72;;;-5.90;100.00
26915;BME280;14480;52.608;13.416;2022-11-15T14:40:56;142610.84;;;-5.64;100.00
26915;BME280;14480;52.608;13.416;2022-11-15T14:46:05;142587.31;;;-5.73;100.00
26915;BME280;14480;52.608;13.416;2022-11-15T14:51:11;142569.97;;;-5.80;100.00
26915;BME280;14480;52.608;13.416;2022-11-15T14:56:17;142540.31;;;-5.93;100.00
26915;BME280;14480;52.608;13.416;2022-11-15T15:01:24;142513.06;;;-6.04;100.00
26915;BME280;14480;52.608;13.416;2022-11-15T15:06:28;142473.50;;;-6.20;100.00
26915;BME280;14480;52.608;13.416;2022-11-15T15:11:34;142449.97;;;-6.30;100.00
26915;BME280;14480;52.608;13.416;2022-11-15T15:16:39;142419.06;;;-6.42;100.00
26915;BME280;14480;52.608;13.416;2022-11-15T15:21:45;142143.28;;;-7.56;100.00
26915;BME280;14480;52.608;13.416;2022-11-15T15:26:49;142365.84;;;-6.64;100.00
26915;BME280;14480;52.608;13.416;2022-11-15T15:31:54;142344.81;;;-6.73;100.00
26915;BME280;14480;52.608;13.416;2022-11-15T15:37:11;142301.56;;;-6.91;100.00
26915;BME280;14480;52.608;13.416;2022-11-15T15:42:25;142273.13;;;-7.02;100.00
26915;BME280;14480;52.608;13.416;2022-11-15T15:47:30;141986.41;;;-8.20;100.00
26915;BME280;14480;52.608;13.416;2022-11-15T15:52:34;142213.78;;;-7.27;100.00
26915;BME280;14480;52.608;13.416;2022-11-15T15:57:37;142187.81;;;-7.38;100.00
26915;BME280;14480;52.608;13.416;2022-11-15T16:02:43;142172.97;;;-7.44;100.00
26915;BME280;14480;52.608;13.416;2022-11-15T16:07:49;142072.88;;;-7.85;100.00
26915;BME280;14480;52.608;13.416;2022-11-15T16:12:53;142097.59;;;-7.75;100.00
26915;BME280;14480;52.608;13.416;2022-11-15T16:18:00;142014.81;;;-8.09;100.00
26915;BME280;14480;52.608;13.416;2022-11-15T16:23:07;141991.34;;;-8.18;100.00
26915;BME280;14480;52.608;13.416;2022-11-15T16:28:18;141938.28;;;-8.40;100.00
26915;BME280;14480;52.608;13.416;2022-11-15T16:33:23;141871.63;;;-8.68;100.00
26915;BME280;14480;52.608;13.416;2022-11-15T16:38:31;141783.94;;;-9.04;100.00
26915;BME280;14480;52.608;13.416;2022-11-15T16:43:37;141724.72;;;-9.28;100.00
26915;BME280;14480;52.608;13.416;2022-11-15T16:48:42;141746.94;;;-9.19;100.00
26915;BME280;14480;52.608;13.416;2022-11-15T16:53:46;141703.78;;;-9.37;100.00
26915;BME280;14480;52.608;13.416;2022-11-15T16:58:51;141677.84;;;-9.48;100.00
26915;BME280;14480;52.608;13.416;2022-11-15T17:03:57;141580.38;;;-9.88;100.00
26915;BME280;14480;52.608;13.416;2022-11-15T17:09:17;141611.22;;;-9.75;100.00
26915;BME280;14480;52.608;13.416;2022-11-15T17:14:56;141507.66;;;-10.18;100.00
26915;BME280;14480;52.608;13.416;2022-11-15T17:20:02;141549.56;;;-10.01;100.00
26915;BME280;14480;52.608;13.416;2022-11-15T17:25:10;141349.94;;;-10.83;100.00
26915;BME280;14480;52.608;13.416;2022-11-15T17:30:15;141481.81;;;-10.28;100.00
26915;BME280;14480;52.608;13.416;2022-11-15T17:35:21;141459.63;;;-10.38;100.00
26915;BME280;14480;52.608;13.416;2022-11-15T17:40:24;141454.69;;;-10.40;100.00
26915;BME280;14480;52.608;13.416;2022-11-15T17:45:28;141454.69;;;-10.40;100.00
26915;BME280;14480;52.608;13.416;2022-11-15T17:50:33;141430.03;;;-10.50;100.00
26915;BME280;14480;52.608;13.416;2022-11-15T17:55:37;141364.69;;;-10.77;100.00
26915;BME280;14480;52.608;13.416;2022-11-15T18:00:44;141401.69;;;-10.62;100.00
26915;BME280;14480;52.608;13.416;2022-11-15T18:05:50;141336.38;;;-10.89;100.00
26915;BME280;14480;52.608;13.416;2022-11-15T18:11:01;141150.41;;;-11.65;100.00
26915;BME280;14480;52.608;13.416;2022-11-15T18:16:09;141301.88;;;-11.03;100.00
26915;BME280;14480;52.608;13.416;2022-11-15T18:21:19;141292.03;;;-11.07;100.00
26915;BME280;14480;52.608;13.416;2022-11-15T18:26:28;141262.47;;;-11.19;100.00
26915;BME280;14480;52.608;13.416;2022-11-15T18:31:32;141261.25;;;-11.20;100.00
26915;BME280;14480;52.608;13.416;2022-11-15T18:36:38;141261.25;;;-11.20;100.00
26915;BME280;14480;52.608;13.416;2022-11-15T18:41:44;141253.88;;;-11.23;100.00
26915;BME280;14480;52.608;13.416;2022-11-15T18:46:49;141272.31;;;-11.15;100.00
26915;BME280;14480;52.608;13.416;2022-11-15T18:51:55;141287.13;;;-11.09;100.00
26915;BME280;14480;52.608;13.416;2022-11-15T18:57:00;141145.50;;;-11.67;100.00
26915;BME280;14480;52.608;13.416;2022-11-15T19:02:04;141239.06;;;-11.29;100.00
26915;BME280;14480;52.608;13.416;2022-11-15T19:07:14;141257.56;;;-11.21;100.00
26915;BME280;14480;52.608;13.416;2022-11-15T19:12:19;141239.06;;;-11.29;100.00
26915;BME280;14480;52.608;13.416;2022-11-15T19:17:23;141211.97;;;-11.40;100.00
26915;BME280;14480;52.608;13.416;2022-11-15T19:22:40;141210.75;;;-11.40;100.00
26915;BME280;14480;52.608;13.416;2022-11-15T19:27:57;140722.44;;;-13.42;100.00
26915;BME280;14480;52.608;13.416;2022-11-15T19:33:01;141218.13;;;-11.37;100.00
26915;BME280;14480;52.608;13.416;2022-11-15T19:38:17;140533.22;;;-14.21;100.00
26915;BME280;14480;52.608;13.416;2022-11-15T19:43:21;141231.69;;;-11.32;100.00
26915;BME280;14480;52.608;13.416;2022-11-15T19:48:26;141236.63;;;-11.30;100.00
26915;BME280;14480;52.608;13.416;2022-11-15T19:53:35;141251.38;;;-11.24;100.00
26915;BME280;14480;52.608;13.416;2022-11-15T19:58:40;141234.16;;;-11.31;100.00
26915;BME280;14480;52.608;13.416;2022-11-15T20:03:45;141216.91;;;-11.38;100.00
26915;BME280;14480;52.608;13.416;2022-11-15T20:08:52;141133.16;;;-11.72;100.00
26915;BME280;14480;52.608;13.416;2022-11-15T20:13:57;141179.97;;;-11.53;100.00
26915;BME280;14480;52.608;13.416;2022-11-15T20:19:13;140621.66;;;-13.84;100.00
26915;BME280;14480;52.608;13.416;2022-11-15T20:24:21;141130.72;;;-11.73;100.00
26915;BME280;14480;52.608;13.416;2022-11-15T20:29:31;140600.78;;;-13.93;100.00
26915;BME280;14480;52.608;13.416;2022-11-15T20:34:36;141091.38;;;-11.90;100.00
26915;BME280;14480;52.608;13.416;2022-11-15T20:39:58;141179.97;;;-11.53;100.00
26915;BME280;14480;52.608;13.416;2022-11-15T20:45:08;140855.13;;;-12.87;100.00
26915;BME280;14480;52.608;13.416;2022-11-15T20:50:12;141114.78;;;-11.80;100.00
26915;BME280;14480;52.608;13.416;2022-11-15T20:55:39;141163.94;;;-11.60;100.00
26915;BME280;14480;52.608;13.416;2022-11-15T21:00:44;141177.50;;;-11.54;100.00
26915;BME280;14480;52.608;13.416;2022-11-15T21:05:48;141188.56;;;-11.50;100.00
26915;BME280;14480;52.608;13.416;2022-11-15T21:10:56;141271.09;;;-11.15;100.00
26915;BME280;14480;52.608;13.416;2022-11-15T21:16:17;141214.44;;;-11.39;100.00
26915;BME280;14480;52.608;13.416;2022-11-15T21:21:21;140965.84;;;-12.42;100.00
26915;BME280;14480;52.608;13.416;2022-11-15T21:26:27;141229.22;;;-11.33;100.00
26915;BME280;14480;52.608;13.416;2022-11-15T21:31:31;141295.72;;;-11.05;100.00
26915;BME280;14480;52.608;13.416;2022-11-15T21:36:35;141144.28;;;-11.68;100.00
26915;BME280;14480;52.608;13.416;2022-11-15T21:41:41;141299.41;;;-11.04;100.00
26915;BME280;14480;52.608;13.416;2022-11-15T21:46:44;141313.00;;;-10.98;100.00
26915;BME280;14480;52.608;13.416;2022-11-15T21:51:48;141255.09;;;-11.22;100.00
26915;BME280;14480;52.608;13.416;2022-11-15T21:56:53;141271.09;;;-11.15;100.00
26915;BME280;14480;52.608;13.416;2022-11-15T22:01:58;141303.09;;;-11.02;100.00
26915;BME280;14480;52.608;13.416;2022-11-15T22:07:17;141266.16;;;-11.18;100.00
26915;BME280;14480;52.608;13.416;2022-11-15T22:12:23;141138.09;;;-11.70;100.00
26915;BME280;14480;52.608;13.416;2022-11-15T22:17:31;141219.34;;;-11.37;100.00
26915;BME280;14480;52.608;13.416;2022-11-15T22:22:48;141122.09;;;-11.77;100.00
26915;BME280;14480;52.608;13.416;2022-11-15T22:27:54;141143.03;;;-11.68;100.00
26915;BME280;14480;52.608;13.416;2022-11-15T22:32:58;141144.28;;;-11.68;100.00
26915;BME280;14480;52.608;13.416;2022-11-15T22:43:51;141168.84;;;-11.58;100.00
26915;BME280;14480;52.608;13.416;2022-11-15T22:48:59;141168.84;;;-11.58;100.00
26915;BME280;14480;52.608;13.416;2022-11-15T22:54:05;141181.19;;;-11.53;100.00
26915;BME280;14480;52.608;13.416;2022-11-15T22:59:12;141165.16;;;-11.59;100.00
26915;BME280;14480;52.608;13.416;2022-11-15T23:04:16;141181.19;;;-11.53;100.00
26915;BME280;14480;52.608;13.416;2022-11-15T23:09:20;141017.53;;;-12.20;100.00
26915;BME280;14480;52.608;13.416;2022-11-15T23:14:25;141141.81;;;-11.69;100.00
26915;BME280;14480;52.608;13.416;2022-11-15T23:19:32;141163.94;;;-11.60;100.00
26915;BME280;14480;52.608;13.416;2022-11-15T23:24:37;141154.09;;;-11.64;100.00
26915;BME280;14480;52.608;13.416;2022-11-15T23:29:43;141173.81;;;-11.56;100.00
26915;BME280;14480;52.608;13.416;2022-11-15T23:35:05;141128.25;;;-11.74;100.00
26915;BME280;14480;52.608;13.416;2022-11-15T23:40:10;141127.03;;;-11.75;100.00
26915;BME280;14480;52.608;13.416;2022-11-15T23:45:16;140957.25;;;-12.45;100.00
26915;BME280;14480;52.608;13.416;2022-11-15T23:50:20;141091.38;;;-11.90;100.00
26915;BME280;14480;52.608;13.416;2022-11-15T23:55:26;141055.66;;;-12.04;100.00
